Time;durP1;ratioP1;P1;durP2;ratioP2;P2;SDS_P1;SDS_P2;PMS_P1;PMS_P2;Temp;Humidity;BMP_temperature;BMP_pressure;BME280_temperature;BME280_humidity;BME280_pressure;Samples;Min_cycle;Max_cycle;Signal;HPM_P1;HPM_P2
2023/04/25 00:00:15;;;;;;;5.23;3.70;;;;;;;7.89;100.00;153387.41;4872514;29;20472;-83
2023/04/25 00:02:42;;;;;;;4.67;3.63;;;;;;;7.90;100.00;153388.72;4871410;29;20463;-83
2023/04/25 00:05:09;;;;;;;3.70;2.90;;;;;;;7.91;100.00;153391.31;4870702;29;20884;-83
2023/04/25 00:07:35;;;;;;;3.93;3.00;;;;;;;7.94;100.00;153400.34;4873794;29;20471;-84
2023/04/25 00:10:02;;;;;;;5.07;3.40;;;;;;;7.97;100.00;153406.78;4874982;29;20470;-83
2023/04/25 00:12:30;;;;;;;7.63;2.90;;;;;;;7.95;100.00;153401.63;4874145;29;20490;-83
2023/04/25 00:14:57;;;;;;;3.57;2.90;;;;;;;7.93;100.00;153397.78;4875001;29;20443;-82
2023/04/25 00:17:25;;;;;;;3.57;2.80;;;;;;;7.96;100.00;153404.22;4862182;29;21012;-82
2023/04/25 00:19:52;;;;;;;3.00;2.60;;;;;;;7.93;100.00;153396.47;4859488;29;20447;-82
2023/04/25 00:22:19;;;;;;;2.77;2.43;;;;;;;7.96;100.00;153404.22;4873209;29;20478;-82
2023/04/25 00:24:45;;;;;;;2.93;2.50;;;;;;;7.97;100.00;153408.09;4859415;29;20480;-82
2023/04/25 00:27:12;;;;;;;4.17;2.90;;;;;;;7.92;100.00;153395.19;4874687;29;20451;-82
2023/04/25 00:29:40;;;;;;;4.33;2.90;;;;;;;7.91;100.00;153391.31;4874494;29;20839;-82
2023/04/25 00:32:06;;;;;;;3.73;2.97;;;;;;;7.87;100.00;153382.25;4862891;29;20468;-83
2023/04/25 00:34:33;;;;;;;4.20;3.30;;;;;;;7.87;100.00;153380.97;4855328;29;20981;-83
2023/04/25 00:37:01;;;;;;;3.57;3.27;;;;;;;7.88;100.00;153383.56;4876020;29;20491;-83
2023/04/25 00:39:28;;;;;;;6.30;2.90;;;;;;;7.85;100.00;153375.81;4860144;29;20943;-82
2023/04/25 00:41:55;;;;;;;3.00;2.70;;;;;;;7.85;100.00;153375.81;4861476;29;20515;-83
2023/04/25 00:44:22;;;;;;;3.50;3.20;;;;;;;7.85;100.00;153375.81;4876847;29;20462;-83
2023/04/25 00:46:50;;;;;;;4.67;2.50;;;;;;;7.86;100.00;153378.41;4877240;29;20819;-83
2023/04/25 00:49:17;;;;;;;3.10;2.60;;;;;;;7.85;100.00;153377.09;4874650;29;20582;-83
2023/04/25 00:51:45;;;;;;;4.70;2.93;;;;;;;7.81;100.00;153365.50;4876980;29;21036;-83
2023/04/25 00:54:12;;;;;;;3.93;3.07;;;;;;;7.82;100.00;153368.03;4862014;29;21007;-83
2023/04/25 00:56:38;;;;;;;3.10;2.80;;;;;;;7.84;100.00;153374.50;4876474;29;20539;-83
2023/04/25 00:59:05;;;;;;;4.07;2.87;;;;;;;7.87;100.00;153380.97;4875137;29;20668;-83
2023/04/25 01:01:32;;;;;;;5.10;3.50;;;;;;;7.89;100.00;153386.13;4877148;29;20511;-82
2023/04/25 01:04:00;;;;;;;3.73;3.23;;;;;;;7.89;100.00;153386.13;4876020;29;20455;-83
2023/04/25 01:06:27;;;;;;;3.50;3.20;;;;;;;7.90;100.00;153390.03;4859236;29;20454;-83
2023/04/25 01:08:54;;;;;;;4.60;3.20;;;;;;;7.91;100.00;153392.63;4860410;29;20447;-83
2023/04/25 01:11:21;;;;;;;4.00;3.30;;;;;;;7.94;100.00;153399.09;4876844;29;21079;-82
2023/04/25 01:13:47;;;;;;;4.10;3.37;;;;;;;7.93;100.00;153396.47;4875699;29;20462;-82
2023/04/25 01:16:14;;;;;;;4.03;3.63;;;;;;;7.91;100.00;153392.63;4876487;29;20463;-83
2023/04/25 01:18:41;;;;;;;4.67;3.80;;;;;;;7.93;100.00;153396.47;4858929;29;20972;-82
2023/04/25 01:21:10;;;;;;;4.17;3.77;;;;;;;7.91;100.00;153391.31;4867526;29;20474;-83
2023/04/25 01:23:37;;;;;;;4.20;3.50;;;;;;;7.92;100.00;153393.88;4861117;29;20894;-82
2023/04/25 01:26:04;;;;;;;3.87;3.47;;;;;;;7.90;100.00;153388.72;4874707;29;20459;-83
2023/04/25 01:28:32;;;;;;;3.97;3.57;;;;;;;7.89;100.00;153386.13;4886276;29;20932;-82
2023/04/25 01:31:00;;;;;;;3.90;3.50;;;;;;;7.89;100.00;153386.13;4881496;29;20555;-82
2023/04/25 01:33:26;;;;;;;4.47;4.07;;;;;;;7.89;100.00;153386.13;4860032;29;20578;-82
2023/04/25 01:35:53;;;;;;;4.33;3.80;;;;;;;7.85;100.00;153375.81;4889879;29;20589;-82
2023/04/25 01:38:21;;;;;;;4.27;3.87;;;;;;;7.85;100.00;153375.81;4860656;29;20475;-82
2023/04/25 01:40:50;;;;;;;5.00;4.10;;;;;;;7.83;100.00;153370.66;4860362;29;20468;-82
2023/04/25 01:43:19;;;;;;;4.40;4.00;;;;;;;7.84;100.00;153373.19;4874410;29;20467;-83
2023/04/25 01:45:46;;;;;;;5.40;4.37;;;;;;;7.86;100.00;153379.66;4860468;29;20508;-82
2023/04/25 01:48:17;;;;;;;5.10;4.60;;;;;;;7.82;100.00;153368.03;4862608;29;20483;-82
2023/04/25 01:50:45;;;;;;;4.20;3.80;;;;;;;7.81;100.00;153365.50;4859415;29;20467;-82
2023/04/25 01:53:13;;;;;;;4.27;3.50;;;;;;;7.80;100.00;153364.19;4869369;29;20452;-83
2023/04/25 01:55:41;;;;;;;3.87;3.47;;;;;;;7.76;100.00;153353.84;4857378;29;20447;-82
2023/04/25 01:58:12;;;;;;;3.50;3.17;;;;;;;7.77;100.00;153355.13;4860436;29;20836;-82
2023/04/25 02:00:58;;;;;;;4.07;3.67;;;;;;;7.76;100.00;153352.53;4874629;29;20474;-82
2023/04/25 02:03:30;;;;;;;4.70;4.00;;;;;;;7.73;100.00;153344.81;4875312;29;20479;-82
2023/04/25 02:05:58;;;;;;;3.33;3.03;;;;;;;7.72;100.00;153342.22;4881217;29;20504;-82
2023/04/25 02:08:25;;;;;;;4.90;4.03;;;;;;;7.69;100.00;153335.75;4860805;29;20444;-82
2023/04/25 02:10:56;;;;;;;4.70;3.37;;;;;;;7.67;100.00;153329.31;4859564;29;20497;-82
2023/04/25 02:13:24;;;;;;;4.13;3.50;;;;;;;7.64;100.00;153322.84;4875825;29;20452;-83
2023/04/25 02:16:04;;;;;;;5.50;3.80;;;;;;;7.64;100.00;153321.56;4876200;29;20520;-82
2023/04/25 02:18:31;;;;;;;4.33;3.73;;;;;;;7.61;100.00;153313.78;4875331;29;20479;-82
2023/04/25 02:20:59;;;;;;;4.90;3.90;;;;;;;7.57;100.00;153303.47;4858225;29;20490;-82
2023/04/25 02:23:26;;;;;;;3.63;3.10;;;;;;;7.56;100.00;153302.19;4857126;29;20491;-82
2023/04/25 02:25:55;;;;;;;3.20;2.90;;;;;;;7.55;100.00;153299.59;4874855;29;20467;-83
2023/04/25 02:28:22;;;;;;;4.97;3.30;;;;;;;7.53;100.00;153293.13;4857352;29;20447;-82
2023/04/25 02:30:49;;;;;;;3.10;2.80;;;;;;;7.52;100.00;153290.56;4859168;29;20470;-82
2023/04/25 02:33:16;;;;;;;4.70;3.30;;;;;;;7.49;100.00;153282.81;4877266;29;21068;-82
2023/04/25 02:35:43;;;;;;;4.50;3.00;;;;;;;7.49;100.00;153282.81;4877007;29;20443;-82
2023/04/25 02:38:09;;;;;;;4.13;3.10;;;;;;;7.45;100.00;153272.47;4874653;29;20494;-82
2023/04/25 02:40:36;;;;;;;3.47;3.03;;;;;;;7.42;100.00;153264.69;4875204;29;20459;-82
2023/04/25 02:43:03;;;;;;;4.17;2.70;;;;;;;7.42;100.00;153264.69;4876460;29;20486;-82
2023/04/25 02:45:30;;;;;;;3.70;2.83;;;;;;;7.40;100.00;153259.53;4874574;29;20504;-82
2023/04/25 02:47:57;;;;;;;3.23;2.70;;;;;;;7.41;100.00;153262.16;4862414;29;20518;-82
2023/04/25 02:50:24;;;;;;;3.47;2.97;;;;;;;7.41;100.00;153263.44;4895410;29;20450;-83
2023/04/25 02:52:50;;;;;;;3.90;2.80;;;;;;;7.46;100.00;153275.06;4885924;29;20582;-82
2023/04/25 02:55:22;;;;;;;3.60;2.63;;;;;;;7.42;100.00;153264.69;4872129;29;20456;-82
2023/04/25 02:57:49;;;;;;;3.70;2.87;;;;;;;7.42;100.00;153266.00;4858076;29;20520;-82
2023/04/25 03:00:25;;;;;;;6.87;2.77;;;;;;;7.39;100.00;153258.25;4873003;29;20542;-82
2023/04/25 03:02:53;;;;;;;4.23;3.37;;;;;;;7.38;100.00;153255.69;4873841;29;20471;-83
2023/04/25 03:05:20;;;;;;;4.17;3.13;;;;;;;7.34;100.00;153246.63;4873307;29;20458;-82
2023/04/25 03:07:47;;;;;;;3.13;2.77;;;;;;;7.29;100.00;153233.72;4874036;29;20998;-83
2023/04/25 03:10:13;;;;;;;3.00;2.60;;;;;;;7.25;100.00;153222.13;4858828;29;20491;-82
2023/04/25 03:12:40;;;;;;;4.00;2.60;;;;;;;7.22;100.00;153215.66;4859102;29;20473;-82
2023/04/25 03:15:08;;;;;;;3.80;3.40;;;;;;;7.26;100.00;153225.97;4856701;29;20474;-82
2023/04/25 03:17:34;;;;;;;3.33;3.03;;;;;;;7.25;100.00;153223.38;4858361;29;20447;-82
2023/04/25 03:20:05;;;;;;;3.40;3.10;;;;;;;7.28;100.00;153229.88;4858480;29;20468;-82
2023/04/25 03:22:32;;;;;;;3.27;2.73;;;;;;;7.27;100.00;153227.28;4857445;29;20462;-82
2023/04/25 03:24:58;;;;;;;3.23;2.90;;;;;;;7.22;100.00;153214.38;4857573;29;20499;-82
2023/04/25 03:27:25;;;;;;;2.97;2.60;;;;;;;7.26;100.00;153225.97;4873831;29;20474;-82
2023/04/25 03:29:52;;;;;;;4.30;3.23;;;;;;;7.24;100.00;153220.81;4873978;29;20940;-82
2023/04/25 03:32:19;;;;;;;3.00;2.70;;;;;;;7.22;100.00;153215.66;4855870;29;20478;-82
2023/04/25 03:34:46;;;;;;;3.40;3.10;;;;;;;7.21;100.00;153211.78;4857753;29;20542;-83
2023/04/25 03:37:14;;;;;;;2.93;2.63;;;;;;;7.20;100.00;153210.47;4856634;29;21054;-82
2023/04/25 03:39:41;;;;;;;3.00;2.70;;;;;;;7.16;100.00;153200.16;4857763;29;20480;-82
2023/04/25 03:42:07;;;;;;;4.17;2.90;;;;;;;7.13;100.00;153192.41;4856290;29;20562;-83
2023/04/25 03:44:34;;;;;;;2.80;2.53;;;;;;;7.08;100.00;153179.50;4873213;29;20491;-82
2023/04/25 03:47:01;;;;;;;5.83;3.53;;;;;;;7.05;100.00;153171.75;4872780;29;20470;-83
2023/04/25 03:49:29;;;;;;;3.30;2.73;;;;;;;7.07;100.00;153176.91;4855339;29;20546;-83
2023/04/25 03:52:01;;;;;;;3.33;2.80;;;;;;;7.05;100.00;153171.75;4856629;29;20932;-83
2023/04/25 03:54:34;;;;;;;4.07;3.43;;;;;;;7.05;100.00;153171.75;4873217;29;20470;-83
2023/04/25 03:57:50;;;;;;;3.40;3.10;;;;;;;7.03;100.00;153166.59;4873415;29;20558;-83
2023/04/25 04:00:17;;;;;;;5.30;2.43;;;;;;;7.05;100.00;153171.75;4869751;29;20901;-83
2023/04/25 04:02:43;;;;;;;3.80;2.87;;;;;;;7.06;100.00;153174.34;4888101;29;20502;-83
2023/04/25 04:05:12;;;;;;;4.40;3.00;;;;;;;7.02;100.00;153162.69;4856981;29;20464;-84
2023/04/25 04:07:44;;;;;;;3.93;3.30;;;;;;;7.03;100.00;153166.59;4873793;29;20789;-83
2023/04/25 04:10:13;;;;;;;4.03;3.03;;;;;;;6.98;100.00;153153.69;4859999;29;20995;-83
2023/04/25 04:12:41;;;;;;;3.80;3.03;;;;;;;7.02;100.00;153162.69;4860810;29;20463;-82
2023/04/25 04:15:08;;;;;;;3.90;3.13;;;;;;;6.99;100.00;153155.00;4861350;29;20994;-83
2023/04/25 04:17:36;;;;;;;3.53;3.07;;;;;;;6.94;100.00;153143.34;4875691;29;20498;-82
2023/04/25 04:20:04;;;;;;;4.47;3.20;;;;;;;6.91;100.00;153135.59;4872432;29;20479;-82
2023/04/25 04:22:32;;;;;;;3.20;2.90;;;;;;;6.90;100.00;153131.72;4881890;29;20485;-82
2023/04/25 04:25:04;;;;;;;3.97;3.40;;;;;;;6.96;100.00;153148.53;4861238;29;20475;-82
2023/04/25 04:27:58;;;;;;;3.60;3.30;;;;;;;6.95;100.00;153144.63;4880333;29;20430;-83
2023/04/25 04:30:41;;;;;;;3.70;2.87;;;;;;;6.93;100.00;153139.47;4875503;29;20802;-82
2023/04/25 04:33:08;;;;;;;3.90;3.20;;;;;;;6.93;100.00;153140.78;4862345;29;20900;-82
2023/04/25 04:35:35;;;;;;;4.00;3.00;;;;;;;6.94;100.00;153143.34;4875684;29;20584;-82
2023/04/25 04:38:02;;;;;;;3.90;3.40;;;;;;;6.95;100.00;153145.94;4876683;29;20450;-82
2023/04/25 04:40:34;;;;;;;4.00;3.60;;;;;;;6.97;100.00;153151.09;4877215;29;20463;-82
2023/04/25 04:43:23;;;;;;;3.63;3.27;;;;;;;7.00;100.00;153158.84;4873075;29;20550;-81
2023/04/25 04:46:14;;;;;;;3.83;3.43;;;;;;;7.00;100.00;153158.84;4875681;29;20498;-82
2023/04/25 04:48:59;;;;;;;3.83;3.47;;;;;;;7.04;100.00;153169.16;4878282;29;20447;-82
2023/04/25 04:51:44;;;;;;;5.27;3.87;;;;;;;7.05;100.00;153171.75;4864266;29;20534;-82
2023/04/25 04:54:28;;;;;;;4.00;3.60;;;;;;;7.11;100.00;153185.94;4864803;29;20471;-82
2023/04/25 04:57:16;;;;;;;4.27;3.70;;;;;;;7.11;100.00;153187.25;4876487;29;20471;-83
2023/04/25 05:00:06;;;;;;;3.73;3.23;;;;;;;7.15;100.00;153196.25;4862378;29;21188;-83
2023/04/25 05:02:56;;;;;;;4.13;3.60;;;;;;;7.17;100.00;153201.47;4880322;29;20462;-83
2023/04/25 05:05:43;;;;;;;4.30;3.60;;;;;;;7.16;100.00;153200.16;4867038;29;20463;-83
2023/04/25 05:08:28;;;;;;;4.40;3.37;;;;;;;7.22;100.00;153214.38;4881110;29;20443;-83
2023/04/25 05:11:14;;;;;;;4.80;3.47;;;;;;;7.20;100.00;153210.47;4807327;29;21276;-83
2023/04/25 05:13:55;;;;;;;5.47;3.97;;;;;;;7.23;100.00;153218.22;4864857;29;20472;-83
2023/04/25 05:16:47;;;;;;;4.77;3.60;;;;;;;7.18;100.00;153205.31;4862410;29;20576;-83
2023/04/25 05:19:23;;;;;;;9.13;4.17;;;;;;;7.22;100.00;153215.66;4863701;29;20566;-83
2023/04/25 05:22:09;;;;;;;4.17;3.60;;;;;;;7.28;100.00;153231.13;4866939;29;20463;-83
2023/04/25 05:25:00;;;;;;;4.40;3.70;;;;;;;7.32;100.00;153241.47;4869055;29;20851;-84
2023/04/25 05:27:53;;;;;;;5.50;4.53;;;;;;;7.36;100.00;153251.78;4868338;29;20480;-83
2023/04/25 05:30:37;;;;;;;4.00;3.40;;;;;;;7.40;100.00;153259.53;4866744;29;20460;-84
2023/04/25 05:33:09;;;;;;;4.43;3.80;;;;;;;7.43;100.00;153268.59;4869375;29;20456;-82
2023/04/25 05:35:36;;;;;;;4.50;4.10;;;;;;;7.44;100.00;153271.16;4867542;29;20454;-82
2023/04/25 05:38:03;;;;;;;6.30;4.60;;;;;;;7.47;100.00;153277.63;4880343;29;20464;-83
2023/04/25 05:40:53;;;;;;;6.50;4.73;;;;;;;7.52;100.00;153290.56;4870361;29;20556;-83
2023/04/25 05:43:38;;;;;;;5.00;4.40;;;;;;;7.55;100.00;153299.59;4866951;29;20459;-83
2023/04/25 05:46:22;;;;;;;5.50;4.60;;;;;;;7.62;100.00;153316.41;4881166;29;20470;-83
2023/04/25 05:49:06;;;;;;;5.23;4.70;;;;;;;7.68;100.00;153333.16;4866358;29;20457;-83
2023/04/25 05:51:42;;;;;;;6.10;4.00;;;;;;;7.79;100.00;153360.28;4870316;29;20509;-83
2023/04/25 05:54:15;;;;;;;5.63;4.33;;;;;;;7.87;100.00;153380.97;4881036;29;20464;-83
2023/04/25 05:56:41;;;;;;;5.13;4.53;;;;;;;7.99;100.00;153412.00;4866737;29;20579;-86
2023/04/25 05:59:08;;;;;;;5.23;3.80;;;;;;;8.14;100.00;153450.75;4864415;29;21021;-83
2023/04/25 06:01:34;;;;;;;5.30;4.47;;;;;;;8.19;100.00;153463.66;4879311;29;20551;-84
2023/04/25 06:04:07;;;;;;;6.93;5.03;;;;;;;8.16;100.00;153455.91;4861081;29;20461;-77
2023/04/25 06:06:34;;;;;;;5.30;4.10;;;;;;;8.15;100.00;153452.03;4864634;29;20472;-77
2023/04/25 06:09:00;;;;;;;4.73;3.80;;;;;;;8.17;100.00;153458.50;4881196;29;20535;-78
2023/04/25 06:11:27;;;;;;;4.90;4.40;;;;;;;8.13;100.00;153448.13;4862141;29;20470;-77
2023/04/25 06:13:54;;;;;;;5.03;4.53;;;;;;;8.09;100.00;153437.81;4864630;29;20462;-77
2023/04/25 06:16:20;;;;;;;7.00;4.27;;;;;;;8.06;100.00;153428.75;4879480;29;20507;-78
2023/04/25 06:18:47;;;;;;;3.67;3.27;;;;;;;8.07;100.00;153432.66;4879582;29;20490;-78
2023/04/25 06:21:15;;;;;;;4.13;3.37;;;;;;;8.05;100.00;153427.47;4863836;29;20479;-78
2023/04/25 06:23:41;;;;;;;4.23;3.83;;;;;;;8.09;100.00;153437.81;4877358;29;20503;-77
2023/04/25 06:26:11;;;;;;;3.73;3.33;;;;;;;8.05;100.00;153426.22;4862853;29;20842;-77
2023/04/25 06:28:40;;;;;;;5.80;4.07;;;;;;;8.08;100.00;153435.22;4864992;29;20808;-77
2023/04/25 06:31:07;;;;;;;4.03;3.40;;;;;;;8.07;100.00;153432.66;4862167;29;20874;-77
2023/04/25 06:33:34;;;;;;;4.20;3.80;;;;;;;8.05;100.00;153427.47;4879378;29;21006;-77
2023/04/25 06:36:00;;;;;;;4.53;3.70;;;;;;;8.07;100.00;153432.66;4863948;29;20948;-77
2023/04/25 06:38:29;;;;;;;5.10;3.70;;;;;;;8.09;100.00;153437.81;4848975;29;20983;-77
2023/04/25 06:40:57;;;;;;;3.70;3.30;;;;;;;8.03;100.00;153422.31;4878390;29;20550;-77
2023/04/25 06:43:24;;;;;;;6.13;3.90;;;;;;;8.06;100.00;153428.75;4863067;29;20466;-79
2023/04/25 06:46:04;;;;;;;4.07;3.60;;;;;;;8.06;100.00;153430.06;4879301;29;20482;-78
2023/04/25 06:48:33;;;;;;;4.90;4.20;;;;;;;8.09;100.00;153436.53;4876161;29;20460;-79
2023/04/25 06:50:59;;;;;;;4.97;4.37;;;;;;;8.08;100.00;153435.22;4878678;29;20495;-78
2023/04/25 06:53:26;;;;;;;5.17;4.20;;;;;;;8.07;100.00;153431.38;4864581;29;20464;-78
2023/04/25 06:56:01;;;;;;;4.97;3.63;;;;;;;8.04;100.00;153424.91;4847947;29;20540;-77
2023/04/25 06:58:38;;;;;;;5.80;3.27;;;;;;;8.01;100.00;153415.84;4879115;29;20478;-77
2023/04/25 07:01:21;;;;;;;4.10;3.70;;;;;;;8.05;100.00;153427.47;4868662;29;20480;-77
2023/04/25 07:03:48;;;;;;;3.63;3.30;;;;;;;8.07;100.00;153432.66;4860121;29;21168;-77
2023/04/25 07:06:18;;;;;;;4.37;3.97;;;;;;;8.08;100.00;153433.94;4860028;29;20483;-77
2023/04/25 07:08:45;;;;;;;4.40;3.43;;;;;;;8.03;100.00;153422.31;4861218;29;20503;-77
2023/04/25 07:11:13;;;;;;;4.00;3.33;;;;;;;8.01;100.00;153417.16;4861568;29;20475;-77
2023/04/25 07:13:40;;;;;;;4.27;3.30;;;;;;;8.00;100.00;153414.53;4877851;29;20450;-77
2023/04/25 07:16:07;;;;;;;4.20;3.43;;;;;;;7.96;100.00;153404.22;4864675;29;20467;-77
2023/04/25 07:18:35;;;;;;;3.70;3.30;;;;;;;7.92;100.00;153395.19;4867451;29;20488;-77
2023/04/25 07:21:02;;;;;;;4.70;4.10;;;;;;;7.92;100.00;153395.19;4863118;29;20492;-77
2023/04/25 07:23:29;;;;;;;4.83;3.60;;;;;;;7.96;100.00;153404.22;4879408;29;20462;-77
2023/04/25 07:25:59;;;;;;;4.30;3.90;;;;;;;7.97;100.00;153406.78;4862611;29;20824;-77
2023/04/25 07:28:28;;;;;;;5.23;3.90;;;;;;;7.96;100.00;153405.53;4865579;29;20456;-77
2023/04/25 07:30:54;;;;;;;7.17;5.00;;;;;;;7.95;100.00;153401.63;4867020;29;20459;-77
2023/04/25 07:33:21;;;;;;;5.23;4.70;;;;;;;7.93;100.00;153397.78;4876548;29;20586;-77
2023/04/25 07:35:48;;;;;;;5.60;4.50;;;;;;;7.97;100.00;153406.78;4876121;29;20854;-77
2023/04/25 07:38:15;;;;;;;4.93;4.40;;;;;;;7.96;100.00;153405.53;4876637;29;20463;-77
2023/04/25 07:40:41;;;;;;;5.00;4.47;;;;;;;7.95;100.00;153401.63;4861407;29;20632;-77
2023/04/25 07:43:12;;;;;;;6.30;4.57;;;;;;;7.95;100.00;153402.94;4861594;29;20471;-77
2023/04/25 07:45:48;;;;;;;5.93;4.70;;;;;;;7.92;100.00;153395.19;4863152;29;20444;-78
2023/04/25 07:48:18;;;;;;;5.87;5.37;;;;;;;7.92;100.00;153393.88;4861332;29;20473;-77
2023/04/25 07:50:46;;;;;;;5.70;4.80;;;;;;;7.96;100.00;153404.22;4848435;29;20472;-76
2023/04/25 07:53:12;;;;;;;7.90;5.50;;;;;;;7.93;100.00;153396.47;4877391;29;20550;-76
2023/04/25 07:55:46;;;;;;;5.70;4.80;;;;;;;7.91;100.00;153391.31;4862557;29;20455;-76
2023/04/25 07:58:21;;;;;;;5.23;4.73;;;;;;;7.91;100.00;153391.31;4868115;29;20456;-76
2023/04/25 08:00:50;;;;;;;6.13;4.63;;;;;;;7.91;100.00;153391.31;4844936;29;20484;-76
2023/04/25 08:03:44;;;;;;;8.70;6.07;;;;;;;7.90;100.00;153390.03;4879098;29;20455;-76
2023/04/25 08:06:17;;;;;;;5.63;5.03;;;;;;;7.91;100.00;153391.31;4860362;29;20916;-76
2023/04/25 08:08:53;;;;;;;5.73;4.90;;;;;;;7.87;100.00;153382.25;4863341;29;21066;-75
2023/04/25 08:11:22;;;;;;;7.00;4.90;;;;;;;7.87;100.00;153380.97;4876418;29;20470;-75
2023/04/25 08:13:50;;;;;;;5.70;5.00;;;;;;;7.84;100.00;153373.19;4876135;29;20471;-75
2023/04/25 08:16:19;;;;;;;5.60;4.90;;;;;;;7.90;100.00;153388.72;4862165;29;21062;-76
2023/04/25 08:18:46;;;;;;;6.83;5.30;;;;;;;7.90;100.00;153390.03;4868569;29;20475;-75
2023/04/25 08:21:13;;;;;;;6.00;5.33;;;;;;;7.89;100.00;153386.13;4877243;29;20495;-76
2023/04/25 08:23:40;;;;;;;6.43;4.70;;;;;;;7.90;100.00;153388.72;4868341;29;20467;-75
2023/04/25 08:26:21;;;;;;;6.63;5.10;;;;;;;7.91;100.00;153391.31;4860973;29;20455;-75
2023/04/25 08:28:49;;;;;;;6.50;5.40;;;;;;;7.93;100.00;153396.47;4875717;29;20979;-75
2023/04/25 08:31:16;;;;;;;8.70;6.23;;;;;;;7.94;100.00;153399.09;4862058;29;20460;-75
2023/04/25 08:34:13;;;;;;;6.47;5.77;;;;;;;7.92;100.00;153395.19;4862958;29;20474;-75
2023/04/25 08:36:46;;;;;;;7.77;6.60;;;;;;;7.93;100.00;153396.47;4870065;29;20467;-76
2023/04/25 08:39:28;;;;;;;7.10;6.40;;;;;;;7.94;100.00;153399.09;4847256;29;20479;-75
2023/04/25 08:42:14;;;;;;;7.17;5.70;;;;;;;7.98;100.00;153409.41;4877488;29;20466;-75
2023/04/25 08:44:40;;;;;;;7.40;5.90;;;;;;;7.97;100.00;153408.09;4876721;29;20459;-75
2023/04/25 08:47:07;;;;;;;6.90;5.83;;;;;;;7.98;100.00;153410.69;4860541;29;20835;-75
2023/04/25 08:49:46;;;;;;;6.90;5.60;;;;;;;8.02;100.00;153419.75;4861566;29;21057;-76
2023/04/25 08:52:14;;;;;;;8.80;5.87;;;;;;;8.01;100.00;153415.84;4876080;29;20906;-76
2023/04/25 08:54:43;;;;;;;7.97;6.33;;;;;;;8.07;100.00;153432.66;4866582;29;21031;-75
2023/04/25 08:57:10;;;;;;;7.30;6.27;;;;;;;8.08;100.00;153435.22;4879769;29;20463;-75
2023/04/25 08:59:38;;;;;;;7.57;5.60;;;;;;;8.08;100.00;153435.22;4879240;29;20479;-76
2023/04/25 09:02:06;;;;;;;7.50;6.40;;;;;;;8.07;100.00;153432.66;4879921;29;20999;-76
2023/04/25 09:04:33;;;;;;;6.50;5.33;;;;;;;8.07;100.00;153431.38;4879472;29;20458;-76
2023/04/25 09:07:01;;;;;;;7.97;6.57;;;;;;;8.07;100.00;153432.66;4865422;29;20805;-75
2023/04/25 09:09:28;;;;;;;7.07;6.17;;;;;;;8.03;100.00;153422.31;4865845;29;21010;-75
2023/04/25 09:11:55;;;;;;;9.20;6.60;;;;;;;8.01;100.00;153415.84;4880212;29;20467;-75
2023/04/25 09:14:22;;;;;;;11.10;6.97;;;;;;;8.05;100.00;153426.22;4879948;29;20487;-76
2023/04/25 09:17:12;;;;;;;7.70;6.50;;;;;;;8.06;100.00;153430.06;4867122;29;20479;-75
2023/04/25 09:19:42;;;;;;;7.50;5.77;;;;;;;8.05;100.00;153427.47;4879662;29;20483;-76
2023/04/25 09:22:31;;;;;;;8.40;6.47;;;;;;;8.00;100.00;153414.53;4878193;29;20464;-75
2023/04/25 09:24:58;;;;;;;6.53;5.93;;;;;;;7.92;100.00;153393.88;4881562;29;20460;-75
2023/04/25 09:27:29;;;;;;;7.57;6.07;;;;;;;7.92;100.00;153393.88;4880366;29;20468;-75
2023/04/25 09:30:03;;;;;;;6.50;5.80;;;;;;;8.00;100.00;153414.53;4871012;29;20866;-75
2023/04/25 09:32:57;;;;;;;7.47;6.67;;;;;;;8.04;100.00;153424.91;4863178;29;20463;-75
2023/04/25 09:35:26;;;;;;;6.50;5.70;;;;;;;8.06;100.00;153430.06;4863735;29;20447;-75
2023/04/25 09:37:54;;;;;;;8.00;6.33;;;;;;;8.09;100.00;153437.81;4878762;29;20486;-76
2023/04/25 09:40:41;;;;;;;7.20;5.90;;;;;;;8.10;100.00;153440.38;4878708;29;21066;-75
2023/04/25 09:43:20;;;;;;;7.70;6.30;;;;;;;8.14;100.00;153450.75;4870833;29;20542;-75
2023/04/25 09:45:47;;;;;;;6.90;5.10;;;;;;;8.10;100.00;153440.38;4847817;29;20520;-75
2023/04/25 09:48:18;;;;;;;7.70;6.50;;;;;;;8.13;100.00;153446.88;4878210;29;20464;-75
2023/04/25 09:51:04;;;;;;;8.17;6.03;;;;;;;8.15;100.00;153452.03;4877497;29;20564;-75
2023/04/25 09:53:32;;;;;;;6.60;5.37;;;;;;;8.10;100.00;153440.38;4862382;29;20462;-76
2023/04/25 09:56:15;;;;;;;5.70;5.20;;;;;;;8.05;100.00;153427.47;4869815;29;20987;-75
2023/04/25 09:58:42;;;;;;;5.73;4.87;;;;;;;8.01;100.00;153417.16;4847737;29;20479;-75
2023/04/25 10:01:11;;;;;;;5.80;5.07;;;;;;;7.96;100.00;153405.53;4863895;29;20528;-75
2023/04/25 10:03:51;;;;;;;5.27;4.77;;;;;;;7.93;100.00;153396.47;4879316;29;21076;-75
2023/04/25 10:06:30;;;;;;;4.33;3.93;;;;;;;7.95;100.00;153401.63;4878025;29;20462;-75
2023/04/25 10:08:58;;;;;;;5.80;4.20;;;;;;;7.95;100.00;153401.63;4878674;29;20471;-75
2023/04/25 10:11:25;;;;;;;4.57;4.10;;;;;;;7.88;100.00;153384.88;4864883;29;20460;-75
2023/04/25 10:13:52;;;;;;;5.53;4.80;;;;;;;7.88;100.00;153383.56;4879062;29;20488;-74
2023/04/25 10:16:18;;;;;;;4.57;3.97;;;;;;;7.88;100.00;153383.56;4879366;29;20464;-75
2023/04/25 10:18:45;;;;;;;5.20;3.87;;;;;;;7.90;100.00;153388.72;4864478;29;20459;-75
2023/04/25 10:21:12;;;;;;;3.70;3.10;;;;;;;7.93;100.00;153396.47;4862693;29;20512;-75
2023/04/25 10:23:38;;;;;;;4.70;3.60;;;;;;;7.92;100.00;153395.19;4864458;29;20519;-75
2023/04/25 10:26:12;;;;;;;4.73;3.17;;;;;;;7.92;100.00;153393.88;4875711;29;20467;-76
2023/04/25 10:28:56;;;;;;;3.30;2.87;;;;;;;7.95;100.00;153401.63;4861627;29;20494;-75
2023/04/25 10:31:22;;;;;;;3.70;2.77;;;;;;;7.93;100.00;153396.47;4877689;29;20975;-75
2023/04/25 10:33:49;;;;;;;2.87;2.30;;;;;;;7.95;100.00;153401.63;4862897;29;20462;-75
2023/04/25 10:36:20;;;;;;;2.60;2.40;;;;;;;7.93;100.00;153397.78;4879944;29;20471;-75
2023/04/25 10:38:50;;;;;;;3.33;3.03;;;;;;;7.83;100.00;153371.94;4863676;29;20869;-76
2023/04/25 10:41:19;;;;;;;2.50;1.90;;;;;;;7.81;100.00;153365.50;4864003;29;20942;-75
2023/04/25 10:43:47;;;;;;;2.87;2.30;;;;;;;7.81;100.00;153366.75;4878686;29;20455;-75
2023/04/25 10:46:16;;;;;;;3.50;2.40;;;;;;;7.83;100.00;153370.66;4864694;29;20466;-74
2023/04/25 10:48:50;;;;;;;1.90;1.53;;;;;;;7.83;100.00;153370.66;4862684;29;20459;-74
2023/04/25 10:51:21;;;;;;;2.17;1.50;;;;;;;7.75;100.00;153349.97;4875527;29;20482;-74
2023/04/25 10:53:57;;;;;;;2.17;1.67;;;;;;;7.76;100.00;153352.53;4878791;29;20462;-75
2023/04/25 10:56:26;;;;;;;2.07;1.80;;;;;;;7.76;100.00;153352.53;4877631;29;20459;-74
2023/04/25 10:59:04;;;;;;;1.90;1.57;;;;;;;7.77;100.00;153356.44;4876562;29;20459;-75
2023/04/25 11:01:37;;;;;;;3.33;1.43;;;;;;;7.73;100.00;153346.06;4862840;29;20499;-75
2023/04/25 11:04:03;;;;;;;2.67;1.70;;;;;;;7.77;100.00;153355.13;4863553;29;20971;-75
2023/04/25 11:06:37;;;;;;;3.10;2.20;;;;;;;7.73;100.00;153344.81;4862546;29;20460;-75
2023/04/25 11:09:04;;;;;;;3.47;2.87;;;;;;;7.65;100.00;153325.41;4869861;29;20825;-74
2023/04/25 11:11:32;;;;;;;3.27;2.70;;;;;;;7.58;100.00;153306.03;4866011;29;20452;-74
2023/04/25 11:13:58;;;;;;;3.57;3.17;;;;;;;7.54;100.00;153295.72;4864037;29;20563;-74
2023/04/25 11:16:25;;;;;;;5.87;3.47;;;;;;;7.39;100.00;153257.00;4862494;29;20476;-76
2023/04/25 11:18:51;;;;;;;5.07;3.03;;;;;;;7.38;100.00;153254.41;4877053;29;20468;-74
2023/04/25 11:21:18;;;;;;;3.37;2.80;;;;;;;7.39;100.00;153257.00;4877046;29;20487;-73
2023/04/25 11:23:46;;;;;;;2.40;2.00;;;;;;;7.38;100.00;153254.41;4877323;29;20456;-74
2023/04/25 11:26:12;;;;;;;2.80;2.13;;;;;;;7.43;100.00;153267.31;4866153;29;20490;-82
2023/04/25 11:28:40;;;;;;;5.20;2.70;;;;;;;7.42;100.00;153266.00;4882232;29;20462;-82
2023/04/25 11:31:06;;;;;;;3.40;2.70;;;;;;;7.46;100.00;153275.06;4863011;29;20464;-82
2023/04/25 11:33:33;;;;;;;4.93;2.53;;;;;;;7.47;100.00;153277.63;4863538;29;20974;-82
2023/04/25 11:35:59;;;;;;;3.70;2.87;;;;;;;7.36;100.00;153250.50;4863234;29;20471;-83
2023/04/25 11:38:26;;;;;;;2.77;2.47;;;;;;;7.31;100.00;153237.59;4878596;29;20487;-83
2023/04/25 11:40:53;;;;;;;4.43;3.33;;;;;;;7.43;100.00;153268.59;4878103;29;20479;-83